sensor_id;sensor_type;location;lat;lon;timestamp;temperature;humidity
39045;DHT22;52192;52.002;5.956;2023-04-01T00:00:07;12.10;87.00
39045;DHT22;52192;52.002;5.956;2023-04-01T00:02:33;12.20;86.90
39045;DHT22;52192;52.002;5.956;2023-04-01T00:04:59;12.20;86.80
39045;DHT22;52192;52.002;5.956;2023-04-01T00:07:24;12.10;86.80
39045;DHT22;52192;52.002;5.956;2023-04-01T00:09:51;12.10;86.90
39045;DHT22;52192;52.002;5.956;2023-04-01T00:12:16;12.10;86.90
39045;DHT22;52192;52.002;5.956;2023-04-01T00:14:42;12.10;87.00
39045;DHT22;52192;52.002;5.956;2023-04-01T00:17:08;12.10;87.00
39045;DHT22;52192;52.002;5.956;2023-04-01T00:19:33;12.10;86.90
39045;DHT22;52192;52.002;5.956;2023-04-01T00:21:59;12.10;86.90
39045;DHT22;52192;52.002;5.956;2023-04-01T00:24:25;12.10;87.10
39045;DHT22;52192;52.002;5.956;2023-04-01T00:26:51;12.10;87.20
39045;DHT22;52192;52.002;5.956;2023-04-01T00:29:16;12.10;87.40
39045;DHT22;52192;52.002;5.956;2023-04-01T00:31:42;12.00;87.40
39045;DHT22;52192;52.002;5.956;2023-04-01T00:34:08;12.00;87.50
39045;DHT22;52192;52.002;5.956;2023-04-01T00:36:33;12.00;87.40
39045;DHT22;52192;52.002;5.956;2023-04-01T00:38:59;12.00;87.40
39045;DHT22;52192;52.002;5.956;2023-04-01T00:41:25;12.00;87.50
39045;DHT22;52192;52.002;5.956;2023-04-01T00:43:52;12.00;88.10
39045;DHT22;52192;52.002;5.956;2023-04-01T00:46:18;12.00;87.50
39045;DHT22;52192;52.002;5.956;2023-04-01T00:48:47;12.10;87.50
39045;DHT22;52192;52.002;5.956;2023-04-01T00:51:17;12.10;87.40
39045;DHT22;52192;52.002;5.956;2023-04-01T00:53:48;12.10;87.50
39045;DHT22;52192;52.002;5.956;2023-04-01T00:56:22;12.10;87.40
39045;DHT22;52192;52.002;5.956;2023-04-01T00:59:11;12.10;87.50
39045;DHT22;52192;52.002;5.956;2023-04-01T01:01:39;12.10;87.30
39045;DHT22;52192;52.002;5.956;2023-04-01T01:04:05;12.10;87.30
39045;DHT22;52192;52.002;5.956;2023-04-01T01:06:56;12.10;87.20
39045;DHT22;52192;52.002;5.956;2023-04-01T01:15:23;12.20;87.20
39045;DHT22;52192;52.002;5.956;2023-04-01T01:28:36;12.20;87.40
39045;DHT22;52192;52.002;5.956;2023-04-01T01:31:37;12.20;87.30
39045;DHT22;52192;52.002;5.956;2023-04-01T01:36:36;12.10;87.50
39045;DHT22;52192;52.002;5.956;2023-04-01T01:39:06;12.10;87.50
39045;DHT22;52192;52.002;5.956;2023-04-01T01:41:34;12.20;87.60
39045;DHT22;52192;52.002;5.956;2023-04-01T01:44:02;12.10;87.60
39045;DHT22;52192;52.002;5.956;2023-04-01T01:46:30;12.10;87.60
39045;DHT22;52192;52.002;5.956;2023-04-01T01:48:57;12.10;87.70
39045;DHT22;52192;52.002;5.956;2023-04-01T01:51:24;12.10;87.90
39045;DHT22;52192;52.002;5.956;2023-04-01T01:53:52;12.10;88.00
39045;DHT22;52192;52.002;5.956;2023-04-01T01:56:23;12.10;88.10
39045;DHT22;52192;52.002;5.956;2023-04-01T01:58:54;12.10;88.20
39045;DHT22;52192;52.002;5.956;2023-04-01T02:01:28;12.10;88.30
39045;DHT22;52192;52.002;5.956;2023-04-01T02:03:56;12.00;88.20
39045;DHT22;52192;52.002;5.956;2023-04-01T02:06:25;12.10;88.20
39045;DHT22;52192;52.002;5.956;2023-04-01T02:08:54;12.00;88.20
39045;DHT22;52192;52.002;5.956;2023-04-01T02:11:37;12.00;88.30
39045;DHT22;52192;52.002;5.956;2023-04-01T02:14:24;12.00;88.40
39045;DHT22;52192;52.002;5.956;2023-04-01T02:16:57;12.00;88.40
39045;DHT22;52192;52.002;5.956;2023-04-01T02:19:48;11.90;88.50
39045;DHT22;52192;52.002;5.956;2023-04-01T02:22:20;11.90;88.50
39045;DHT22;52192;52.002;5.956;2023-04-01T02:24:48;11.80;89.30
39045;DHT22;52192;52.002;5.956;2023-04-01T02:27:14;11.80;88.70
39045;DHT22;52192;52.002;5.956;2023-04-01T02:29:40;11.90;88.60
39045;DHT22;52192;52.002;5.956;2023-04-01T02:32:08;11.90;89.10
39045;DHT22;52192;52.002;5.956;2023-04-01T02:34:35;11.90;88.50
39045;DHT22;52192;52.002;5.956;2023-04-01T02:37:01;11.90;88.60
39045;DHT22;52192;52.002;5.956;2023-04-01T02:39:27;11.90;88.50
39045;DHT22;52192;52.002;5.956;2023-04-01T02:41:53;11.90;88.40
39045;DHT22;52192;52.002;5.956;2023-04-01T02:44:19;11.90;88.30
39045;DHT22;52192;52.002;5.956;2023-04-01T02:46:45;12.00;88.30
39045;DHT22;52192;52.002;5.956;2023-04-01T02:49:11;11.90;88.30
39045;DHT22;52192;52.002;5.956;2023-04-01T02:51:37;11.90;88.30
39045;DHT22;52192;52.002;5.956;2023-04-01T02:54:03;11.90;88.30
39045;DHT22;52192;52.002;5.956;2023-04-01T02:56:28;11.90;88.40
39045;DHT22;52192;52.002;5.956;2023-04-01T02:58:54;11.80;88.50
39045;DHT22;52192;52.002;5.956;2023-04-01T03:01:21;11.80;88.50
39045;DHT22;52192;52.002;5.956;2023-04-01T03:03:47;11.80;88.50
39045;DHT22;52192;52.002;5.956;2023-04-01T03:06:14;11.80;88.50
39045;DHT22;52192;52.002;5.956;2023-04-01T03:08:40;11.80;88.60
39045;DHT22;52192;52.002;5.956;2023-04-01T03:11:06;11.80;88.60
39045;DHT22;52192;52.002;5.956;2023-04-01T03:13:33;11.80;88.60
39045;DHT22;52192;52.002;5.956;2023-04-01T03:15:58;11.80;88.50
39045;DHT22;52192;52.002;5.956;2023-04-01T03:18:24;11.80;88.50
39045;DHT22;52192;52.002;5.956;2023-04-01T03:20:50;11.80;88.40
39045;DHT22;52192;52.002;5.956;2023-04-01T03:23:16;11.80;88.40
39045;DHT22;52192;52.002;5.956;2023-04-01T03:25:44;11.80;88.50
39045;DHT22;52192;52.002;5.956;2023-04-01T03:28:10;11.80;88.60
39045;DHT22;52192;52.002;5.956;2023-04-01T03:30:36;11.80;89.10
39045;DHT22;52192;52.002;5.956;2023-04-01T03:33:02;11.80;88.60
39045;DHT22;52192;52.002;5.956;2023-04-01T03:35:28;11.70;88.60
39045;DHT22;52192;52.002;5.956;2023-04-01T03:37:54;11.70;88.70
39045;DHT22;52192;52.002;5.956;2023-04-01T03:40:20;11.70;88.80
39045;DHT22;52192;52.002;5.956;2023-04-01T03:42:46;11.70;88.70
39045;DHT22;52192;52.002;5.956;2023-04-01T03:45:11;11.70;88.70
39045;DHT22;52192;52.002;5.956;2023-04-01T03:47:38;11.70;88.70
39045;DHT22;52192;52.002;5.956;2023-04-01T03:50:06;11.70;89.20
39045;DHT22;52192;52.002;5.956;2023-04-01T03:52:32;11.70;88.70
39045;DHT22;52192;52.002;5.956;2023-04-01T03:54:57;11.60;88.70
39045;DHT22;52192;52.002;5.956;2023-04-01T03:57:23;11.60;88.80
39045;DHT22;52192;52.002;5.956;2023-04-01T03:59:49;11.60;88.90
39045;DHT22;52192;52.002;5.956;2023-04-01T04:02:14;11.60;88.80
39045;DHT22;52192;52.002;5.956;2023-04-01T04:04:40;11.60;88.90
39045;DHT22;52192;52.002;5.956;2023-04-01T04:07:06;11.60;88.90
39045;DHT22;52192;52.002;5.956;2023-04-01T04:09:32;11.60;88.80
39045;DHT22;52192;52.002;5.956;2023-04-01T04:11:59;11.60;88.70
39045;DHT22;52192;52.002;5.956;2023-04-01T04:14:25;11.60;88.70
39045;DHT22;52192;52.002;5.956;2023-04-01T04:16:51;11.60;88.90
39045;DHT22;52192;52.002;5.956;2023-04-01T04:19:17;11.60;88.90
39045;DHT22;52192;52.002;5.956;2023-04-01T04:21:42;11.60;88.90
39045;DHT22;52192;52.002;5.956;2023-04-01T04:24:08;11.60;89.00
39045;DHT22;52192;52.002;5.956;2023-04-01T04:26:34;11.60;88.80
39045;DHT22;52192;52.002;5.956;2023-04-01T04:29:01;11.60;88.70
39045;DHT22;52192;52.002;5.956;2023-04-01T04:31:26;11.70;88.70
39045;DHT22;52192;52.002;5.956;2023-04-01T04:33:52;11.60;88.60
39045;DHT22;52192;52.002;5.956;2023-04-01T04:36:19;11.70;88.60
39045;DHT22;52192;52.002;5.956;2023-04-01T04:38:45;11.60;88.60
39045;DHT22;52192;52.002;5.956;2023-04-01T04:41:16;11.70;88.70
39045;DHT22;52192;52.002;5.956;2023-04-01T04:43:52;11.70;88.60
39045;DHT22;52192;52.002;5.956;2023-04-01T04:46:19;11.70;88.60
39045;DHT22;52192;52.002;5.956;2023-04-01T04:48:45;11.60;88.50
39045;DHT22;52192;52.002;5.956;2023-04-01T04:51:15;11.60;88.60
39045;DHT22;52192;52.002;5.956;2023-04-01T04:53:41;11.60;88.60
39045;DHT22;52192;52.002;5.956;2023-04-01T04:56:07;11.60;88.60
39045;DHT22;52192;52.002;5.956;2023-04-01T04:58:33;11.60;88.70
39045;DHT22;52192;52.002;5.956;2023-04-01T05:01:04;11.60;88.60
39045;DHT22;52192;52.002;5.956;2023-04-01T05:03:30;11.70;88.70
39045;DHT22;52192;52.002;5.956;2023-04-01T05:05:56;11.70;88.40
39045;DHT22;52192;52.002;5.956;2023-04-01T05:08:22;11.70;88.40
39045;DHT22;52192;52.002;5.956;2023-04-01T05:10:47;11.70;88.40
39045;DHT22;52192;52.002;5.956;2023-04-01T05:13:13;11.70;88.40
39045;DHT22;52192;52.002;5.956;2023-04-01T05:15:39;11.70;88.40
39045;DHT22;52192;52.002;5.956;2023-04-01T05:18:05;11.70;88.30
39045;DHT22;52192;52.002;5.956;2023-04-01T05:20:31;11.80;88.30
39045;DHT22;52192;52.002;5.956;2023-04-01T05:22:57;11.80;88.30
39045;DHT22;52192;52.002;5.956;2023-04-01T05:25:23;11.80;88.20
39045;DHT22;52192;52.002;5.956;2023-04-01T05:27:49;11.80;88.10
39045;DHT22;52192;52.002;5.956;2023-04-01T05:30:15;11.80;88.00
39045;DHT22;52192;52.002;5.956;2023-04-01T05:32:40;11.90;88.10
39045;DHT22;52192;52.002;5.956;2023-04-01T05:35:06;11.90;88.00
39045;DHT22;52192;52.002;5.956;2023-04-01T05:37:35;11.90;87.90
39045;DHT22;52192;52.002;5.956;2023-04-01T05:40:02;11.90;87.90
39045;DHT22;52192;52.002;5.956;2023-04-01T05:42:27;11.90;87.90
39045;DHT22;52192;52.002;5.956;2023-04-01T05:44:53;11.90;87.80
39045;DHT22;52192;52.002;5.956;2023-04-01T05:47:19;12.00;88.40
39045;DHT22;52192;52.002;5.956;2023-04-01T05:49:45;11.90;87.70
39045;DHT22;52192;52.002;5.956;2023-04-01T05:52:10;11.90;87.80
39045;DHT22;52192;52.002;5.956;2023-04-01T05:54:36;11.90;87.90
39045;DHT22;52192;52.002;5.956;2023-04-01T05:57:02;11.90;87.90
39045;DHT22;52192;52.002;5.956;2023-04-01T05:59:27;11.90;87.90
39045;DHT22;52192;52.002;5.956;2023-04-01T06:01:53;11.90;87.80
39045;DHT22;52192;52.002;5.956;2023-04-01T06:04:19;11.90;87.70
39045;DHT22;52192;52.002;5.956;2023-04-01T06:06:45;12.00;87.70
39045;DHT22;52192;52.002;5.956;2023-04-01T06:09:15;12.00;87.60
39045;DHT22;52192;52.002;5.956;2023-04-01T06:17:37;11.90;87.70
39045;DHT22;52192;52.002;5.956;2023-04-01T06:22:53;11.90;87.70
39045;DHT22;52192;52.002;5.956;2023-04-01T06:58:27;12.20;87.20
39045;DHT22;52192;52.002;5.956;2023-04-01T07:00:57;12.30;87.20
39045;DHT22;52192;52.002;5.956;2023-04-01T07:06:35;12.40;86.90
39045;DHT22;52192;52.002;5.956;2023-04-01T07:09:06;12.40;86.80
39045;DHT22;52192;52.002;5.956;2023-04-01T07:11:35;12.40;86.90
39045;DHT22;52192;52.002;5.956;2023-04-01T07:21:40;12.50;86.80
39045;DHT22;52192;52.002;5.956;2023-04-01T07:24:15;12.50;86.80
39045;DHT22;52192;52.002;5.956;2023-04-01T07:26:43;12.60;86.90
39045;DHT22;52192;52.002;5.956;2023-04-01T07:29:13;12.60;86.90
39045;DHT22;52192;52.002;5.956;2023-04-01T07:31:50;12.60;87.00
39045;DHT22;52192;52.002;5.956;2023-04-01T07:34:29;12.60;86.80
39045;DHT22;52192;52.002;5.956;2023-04-01T07:42:44;12.70;86.80
39045;DHT22;52192;52.002;5.956;2023-04-01T07:51:00;12.90;86.60
39045;DHT22;52192;52.002;5.956;2023-04-01T07:53:43;12.90;86.60
39045;DHT22;52192;52.002;5.956;2023-04-01T07:56:49;13.00;86.60
39045;DHT22;52192;52.002;5.956;2023-04-01T08:04:39;12.90;86.90
39045;DHT22;52192;52.002;5.956;2023-04-01T08:07:20;12.90;86.90
39045;DHT22;52192;52.002;5.956;2023-04-01T08:10:00;12.90;86.90
39045;DHT22;52192;52.002;5.956;2023-04-01T08:15:45;13.00;86.90
39045;DHT22;52192;52.002;5.956;2023-04-01T08:20:59;13.00;86.90
39045;DHT22;52192;52.002;5.956;2023-04-01T08:23:30;13.00;86.90
39045;DHT22;52192;52.002;5.956;2023-04-01T08:28:51;13.00;86.90
39045;DHT22;52192;52.002;5.956;2023-04-01T08:31:31;13.10;86.90
39045;DHT22;52192;52.002;5.956;2023-04-01T08:34:01;13.10;86.80
39045;DHT22;52192;52.002;5.956;2023-04-01T08:36:34;13.20;86.70
39045;DHT22;52192;52.002;5.956;2023-04-01T08:39:03;13.20;86.70
39045;DHT22;52192;52.002;5.956;2023-04-01T08:44:26;13.30;86.60
39045;DHT22;52192;52.002;5.956;2023-04-01T08:47:24;13.50;86.60
39045;DHT22;52192;52.002;5.956;2023-04-01T08:52:58;13.50;86.40
39045;DHT22;52192;52.002;5.956;2023-04-01T09:08:52;13.50;86.50
39045;DHT22;52192;52.002;5.956;2023-04-01T09:17:28;13.30;86.80
39045;DHT22;52192;52.002;5.956;2023-04-01T09:26:04;13.40;86.90
39045;DHT22;52192;52.002;5.956;2023-04-01T09:35:05;13.50;87.00
39045;DHT22;52192;52.002;5.956;2023-04-01T09:51:03;13.60;86.50
39045;DHT22;52192;52.002;5.956;2023-04-01T10:19:05;13.20;87.30
39045;DHT22;52192;52.002;5.956;2023-04-01T10:24:30;13.20;87.10
39045;DHT22;52192;52.002;5.956;2023-04-01T10:33:03;13.20;87.20
39045;DHT22;52192;52.002;5.956;2023-04-01T10:41:38;13.30;87.10
39045;DHT22;52192;52.002;5.956;2023-04-01T10:53:10;13.70;86.90
39045;DHT22;52192;52.002;5.956;2023-04-01T11:21:59;13.80;86.60
39045;DHT22;52192;52.002;5.956;2023-04-01T11:36:43;13.70;85.70
39045;DHT22;52192;52.002;5.956;2023-04-01T11:39:35;13.60;86.10
39045;DHT22;52192;52.002;5.956;2023-04-01T11:45:29;13.30;86.50
39045;DHT22;52192;52.002;5.956;2023-04-01T11:48:03;13.30;86.60
39045;DHT22;52192;52.002;5.956;2023-04-01T12:05:24;13.20;87.20
39045;DHT22;52192;52.002;5.956;2023-04-01T12:10:52;13.30;87.40
39045;DHT22;52192;52.002;5.956;2023-04-01T12:16:28;13.20;87.70
39045;DHT22;52192;52.002;5.956;2023-04-01T12:18:59;13.30;87.70
39045;DHT22;52192;52.002;5.956;2023-04-01T12:45:54;13.50;87.40
39045;DHT22;52192;52.002;5.956;2023-04-01T12:54:14;13.60;87.50
39045;DHT22;52192;52.002;5.956;2023-04-01T12:56:59;13.70;87.30
39045;DHT22;52192;52.002;5.956;2023-04-01T13:05:09;13.80;87.20
39045;DHT22;52192;52.002;5.956;2023-04-01T13:07:59;13.90;87.10
39045;DHT22;52192;52.002;5.956;2023-04-01T13:15:37;13.90;87.00
39045;DHT22;52192;52.002;5.956;2023-04-01T13:26:48;14.10;86.90
39045;DHT22;52192;52.002;5.956;2023-04-01T13:40:58;14.20;86.70
39045;DHT22;52192;52.002;5.956;2023-04-01T13:43:28;14.10;86.50
39045;DHT22;52192;52.002;5.956;2023-04-01T13:51:26;14.10;86.60
39045;DHT22;52192;52.002;5.956;2023-04-01T14:10:40;14.10;86.50
39045;DHT22;52192;52.002;5.956;2023-04-01T14:12:55;14.10;86.30
39045;DHT22;52192;52.002;5.956;2023-04-01T14:24:14;14.20;86.10
39045;DHT22;52192;52.002;5.956;2023-04-01T14:35:37;14.20;86.00
39045;DHT22;52192;52.002;5.956;2023-04-01T14:38:35;14.20;86.10
39045;DHT22;52192;52.002;5.956;2023-04-01T14:54:03;14.30;85.80
39045;DHT22;52192;52.002;5.956;2023-04-01T14:59:13;14.40;85.60
39045;DHT22;52192;52.002;5.956;2023-04-01T15:13:17;14.40;85.60
39045;DHT22;52192;52.002;5.956;2023-04-01T15:21:55;14.40;85.60
39045;DHT22;52192;52.002;5.956;2023-04-01T15:24:34;14.40;85.60
39045;DHT22;52192;52.002;5.956;2023-04-01T15:38:22;14.30;85.80
39045;DHT22;52192;52.002;5.956;2023-04-01T15:41:07;14.20;85.80
39045;DHT22;52192;52.002;5.956;2023-04-01T15:46:15;14.20;85.90
39045;DHT22;52192;52.002;5.956;2023-04-01T16:08:29;13.90;86.10
39045;DHT22;52192;52.002;5.956;2023-04-01T16:14:27;13.90;85.90
39045;DHT22;52192;52.002;5.956;2023-04-01T16:31:10;13.80;86.00
39045;DHT22;52192;52.002;5.956;2023-04-01T16:33:52;13.70;86.00
39045;DHT22;52192;52.002;5.956;2023-04-01T16:36:34;13.60;86.10
39045;DHT22;52192;52.002;5.956;2023-04-01T16:47:30;13.50;86.90
39045;DHT22;52192;52.002;5.956;2023-04-01T16:50:13;13.40;86.20
39045;DHT22;52192;52.002;5.956;2023-04-01T16:53:17;13.40;86.30
39045;DHT22;52192;52.002;5.956;2023-04-01T16:55:54;13.30;86.20
39045;DHT22;52192;52.002;5.956;2023-04-01T16:59:21;13.30;86.30
39045;DHT22;52192;52.002;5.956;2023-04-01T17:01:27;13.30;86.20
39045;DHT22;52192;52.002;5.956;2023-04-01T17:04:34;13.20;86.20
39045;DHT22;52192;52.002;5.956;2023-04-01T17:13:30;13.00;86.50
39045;DHT22;52192;52.002;5.956;2023-04-01T17:19:21;12.90;86.30
39045;DHT22;52192;52.002;5.956;2023-04-01T17:24:46;12.90;86.30
39045;DHT22;52192;52.002;5.956;2023-04-01T17:30:30;12.90;86.00
39045;DHT22;52192;52.002;5.956;2023-04-01T17:33:12;12.90;85.90
39045;DHT22;52192;52.002;5.956;2023-04-01T17:41:46;12.80;86.10
39045;DHT22;52192;52.002;5.956;2023-04-01T17:52:33;12.60;85.80
39045;DHT22;52192;52.002;5.956;2023-04-01T18:00:23;12.50;86.00
39045;DHT22;52192;52.002;5.956;2023-04-01T18:06:03;12.60;85.90
39045;DHT22;52192;52.002;5.956;2023-04-01T18:11:25;12.50;85.60
39045;DHT22;52192;52.002;5.956;2023-04-01T18:20:20;12.40;85.70
39045;DHT22;52192;52.002;5.956;2023-04-01T18:23:24;12.30;85.60
39045;DHT22;52192;52.002;5.956;2023-04-01T18:26:02;12.20;85.70
39045;DHT22;52192;52.002;5.956;2023-04-01T18:31:48;12.20;85.60
39045;DHT22;52192;52.002;5.956;2023-04-01T18:37:16;12.00;85.70
39045;DHT22;52192;52.002;5.956;2023-04-01T18:40:32;12.00;85.80
39045;DHT22;52192;52.002;5.956;2023-04-01T18:43:08;12.00;85.90
39045;DHT22;52192;52.002;5.956;2023-04-01T18:45:59;12.10;85.70
39045;DHT22;52192;52.002;5.956;2023-04-01T18:51:53;12.00;85.70
39045;DHT22;52192;52.002;5.956;2023-04-01T18:54:30;11.90;85.80
39045;DHT22;52192;52.002;5.956;2023-04-01T18:57:18;11.90;85.80
39045;DHT22;52192;52.002;5.956;2023-04-01T18:59:57;12.00;85.60
39045;DHT22;52192;52.002;5.956;2023-04-01T19:05:14;11.90;85.60
39045;DHT22;52192;52.002;5.956;2023-04-01T19:07:47;12.00;85.50
39045;DHT22;52192;52.002;5.956;2023-04-01T19:15:31;11.80;85.50
39045;DHT22;52192;52.002;5.956;2023-04-01T19:18:25;11.80;85.50
39045;DHT22;52192;52.002;5.956;2023-04-01T19:26:36;11.80;85.40
39045;DHT22;52192;52.002;5.956;2023-04-01T19:29:25;11.80;85.30
39045;DHT22;52192;52.002;5.956;2023-04-01T19:35:17;11.70;85.30
39045;DHT22;52192;52.002;5.956;2023-04-01T19:37:56;11.70;85.30
39045;DHT22;52192;52.002;5.956;2023-04-01T19:40:51;11.70;85.40
39045;DHT22;52192;52.002;5.956;2023-04-01T19:49:12;11.60;85.20
39045;DHT22;52192;52.002;5.956;2023-04-01T20:02:55;11.40;85.20
39045;DHT22;52192;52.002;5.956;2023-04-01T20:08:24;11.20;85.10
39045;DHT22;52192;52.002;5.956;2023-04-01T20:11:24;11.20;85.30
39045;DHT22;52192;52.002;5.956;2023-04-01T20:16:49;11.10;85.50
39045;DHT22;52192;52.002;5.956;2023-04-01T20:19:27;11.20;85.30
39045;DHT22;52192;52.002;5.956;2023-04-01T20:21:57;11.20;85.20
39045;DHT22;52192;52.002;5.956;2023-04-01T20:24:35;11.10;85.10
39045;DHT22;52192;52.002;5.956;2023-04-01T20:27:20;11.10;84.90
39045;DHT22;52192;52.002;5.956;2023-04-01T20:30:25;11.10;84.90
39045;DHT22;52192;52.002;5.956;2023-04-01T20:35:47;11.00;84.90
39045;DHT22;52192;52.002;5.956;2023-04-01T20:41:01;10.90;85.00
39045;DHT22;52192;52.002;5.956;2023-04-01T20:45:59;10.90;85.00
39045;DHT22;52192;52.002;5.956;2023-04-01T20:48:39;10.90;85.00
39045;DHT22;52192;52.002;5.956;2023-04-01T20:51:14;10.80;84.80
39045;DHT22;52192;52.002;5.956;2023-04-01T21:07:58;10.50;85.00
39045;DHT22;52192;52.002;5.956;2023-04-01T21:10:41;10.60;85.00
39045;DHT22;52192;52.002;5.956;2023-04-01T21:19:30;10.70;84.50
39045;DHT22;52192;52.002;5.956;2023-04-01T21:25:17;10.50;84.70
39045;DHT22;52192;52.002;5.956;2023-04-01T21:48:47;10.20;84.70
39045;DHT22;52192;52.002;5.956;2023-04-01T22:05:22;10.20;84.30
39045;DHT22;52192;52.002;5.956;2023-04-01T22:10:35;10.10;84.40
39045;DHT22;52192;52.002;5.956;2023-04-01T22:13:12;10.10;84.30
39045;DHT22;52192;52.002;5.956;2023-04-01T22:15:48;10.00;84.40
39045;DHT22;52192;52.002;5.956;2023-04-01T22:18:21;10.00;84.50
39045;DHT22;52192;52.002;5.956;2023-04-01T22:20:50;10.00;84.40
39045;DHT22;52192;52.002;5.956;2023-04-01T22:23:39;10.00;84.30
39045;DHT22;52192;52.002;5.956;2023-04-01T22:26:32;10.00;84.30
39045;DHT22;52192;52.002;5.956;2023-04-01T22:29:06;10.00;84.30
39045;DHT22;52192;52.002;5.956;2023-04-01T22:31:43;9.90;84.40
39045;DHT22;52192;52.002;5.956;2023-04-01T22:34:20;10.00;84.40
39045;DHT22;52192;52.002;5.956;2023-04-01T22:37:23;9.90;84.30
39045;DHT22;52192;52.002;5.956;2023-04-01T22:53:46;9.70;84.10
39045;DHT22;52192;52.002;5.956;2023-04-01T22:56:38;9.70;84.40
39045;DHT22;52192;52.002;5.956;2023-04-01T23:02:06;9.70;84.30
39045;DHT22;52192;52.002;5.956;2023-04-01T23:04:38;9.70;84.30
39045;DHT22;52192;52.002;5.956;2023-04-01T23:07:27;9.70;84.20
39045;DHT22;52192;52.002;5.956;2023-04-01T23:09:56;9.70;84.10
39045;DHT22;52192;52.002;5.956;2023-04-01T23:12:26;9.70;84.10
39045;DHT22;52192;52.002;5.956;2023-04-01T23:15:01;9.70;84.00
39045;DHT22;52192;52.002;5.956;2023-04-01T23:23:27;9.70;83.80
39045;DHT22;52192;52.002;5.956;2023-04-01T23:26:07;9.70;83.90
39045;DHT22;52192;52.002;5.956;2023-04-01T23:28:44;9.60;84.00
39045;DHT22;52192;52.002;5.956;2023-04-01T23:31:35;9.60;84.00
39045;DHT22;52192;52.002;5.956;2023-04-01T23:34:24;9.60;83.90
39045;DHT22;52192;52.002;5.956;2023-04-01T23:36:51;9.60;84.00
39045;DHT22;52192;52.002;5.956;2023-04-01T23:41:56;9.60;84.10
39045;DHT22;52192;52.002;5.956;2023-04-01T23:44:25;9.60;84.00
39045;DHT22;52192;52.002;5.956;2023-04-01T23:46:52;9.60;83.90
39045;DHT22;52192;52.002;5.956;2023-04-01T23:49:23;9.60;83.80
39045;DHT22;52192;52.002;5.956;2023-04-01T23:51:59;9.50;83.70
39045;DHT22;52192;52.002;5.956;2023-04-01T23:54:43;9.40;83.80
39045;DHT22;52192;52.002;5.956;2023-04-01T23:57:15;9.40;84.00
39045;DHT22;52192;52.002;5.956;2023-04-01T23:59:43;9.30;84.00
